Time;durP1;ratioP1;P1;durP2;ratioP2;P2;SDS_P1;SDS_P2;PMS_P1;PMS_P2;Temp;Humidity;BMP_temperature;BMP_pressure;BME280_temperature;BME280_humidity;BME280_pressure;Samples;Min_cycle;Max_cycle;Signal;HPM_P1;HPM_P2
2023/08/03 00:00:36;;;;;;;5.50;1.60;;;17.70;61.40;;;;;;5033469;28;20480;-74
2023/08/03 00:03:02;;;;;;;2.90;1.50;;;17.70;59.30;;;;;;5051054;28;20385;-74
2023/08/03 00:05:27;;;;;;;3.60;1.60;;;17.80;55.80;;;;;;5051271;28;20797;-74
2023/08/03 00:07:53;;;;;;;6.30;1.60;;;17.80;57.90;;;;;;5051083;28;20385;-74
2023/08/03 00:10:20;;;;;;;2.93;1.40;;;17.80;55.70;;;;;;5050090;28;20381;-73
2023/08/03 00:12:47;;;;;;;5.57;1.50;;;17.90;55.90;;;;;;5050296;28;20493;-74
2023/08/03 00:15:14;;;;;;;4.50;1.60;;;18.00;54.90;;;;;;5050780;28;20381;-74
2023/08/03 00:17:40;;;;;;;2.97;1.10;;;17.90;55.40;;;;;;5050902;28;20386;-74
2023/08/03 00:20:06;;;;;;;3.17;1.43;;;17.90;54.50;;;;;;5051003;28;20385;-74
2023/08/03 00:22:32;;;;;;;3.30;1.60;;;18.00;53.90;;;;;;5050780;28;20736;-73
2023/08/03 00:24:58;;;;;;;4.60;1.40;;;18.00;53.60;;;;;;5050945;28;20413;-74
2023/08/03 00:27:24;;;;;;;3.97;1.23;;;18.00;52.20;;;;;;5050865;28;20900;-74
2023/08/03 00:29:49;;;;;;;2.63;1.20;;;18.10;53.20;;;;;;5050737;28;20406;-74
2023/08/03 00:32:15;;;;;;;6.80;1.40;;;18.10;53.20;;;;;;5050595;28;20414;-73
2023/08/03 00:34:41;;;;;;;2.63;1.10;;;18.10;52.40;;;;;;5050495;28;20387;-73
2023/08/03 00:37:06;;;;;;;3.30;1.40;;;18.20;51.70;;;;;;5050557;28;20747;-74
2023/08/03 00:39:32;;;;;;;3.10;1.10;;;18.10;52.10;;;;;;5050633;28;20853;-73
2023/08/03 00:41:57;;;;;;;2.50;1.40;;;18.10;52.10;;;;;;5050124;28;20397;-74
2023/08/03 00:44:23;;;;;;;3.50;1.38;;;18.10;53.40;;;;;;5050450;28;20405;-73
2023/08/03 00:46:49;;;;;;;5.40;1.50;;;18.10;53.80;;;;;;5050601;28;20381;-73
2023/08/03 00:49:14;;;;;;;5.07;1.20;;;18.00;53.90;;;;;;5050956;28;20975;-73
2023/08/03 00:51:40;;;;;;;3.10;1.20;;;18.00;55.90;;;;;;5050403;28;20401;-73
2023/08/03 00:54:07;;;;;;;5.90;1.20;;;17.90;58.70;;;;;;5051195;28;20398;-73
2023/08/03 00:56:36;;;;;;;4.20;1.20;;;17.80;60.40;;;;;;5051025;28;20381;-73
2023/08/03 00:59:03;;;;;;;4.25;1.30;;;17.70;62.50;;;;;;5053802;28;20428;-73
2023/08/03 01:01:29;;;;;;;2.05;1.15;;;17.60;65.30;;;;;;5055243;28;20405;-73
2023/08/03 01:03:55;;;;;;;5.10;1.40;;;17.50;66.00;;;;;;5037673;28;20472;-74
2023/08/03 01:06:23;;;;;;;3.28;1.30;;;17.40;69.60;;;;;;5052498;28;20397;-73
2023/08/03 01:08:49;;;;;;;4.45;1.40;;;17.30;72.50;;;;;;5049636;28;20397;-74
2023/08/03 01:11:14;;;;;;;6.38;1.80;;;17.30;72.30;;;;;;5062509;28;20404;-73
2023/08/03 01:13:40;;;;;;;3.63;1.40;;;17.30;72.90;;;;;;5064098;28;20886;-74
2023/08/03 01:16:09;;;;;;;5.25;1.40;;;17.20;73.20;;;;;;5064308;28;20433;-75
2023/08/03 01:18:36;;;;;;;6.43;1.47;;;17.30;72.10;;;;;;5063861;28;20445;-71
2023/08/03 01:21:05;;;;;;;5.60;1.70;;;17.30;74.10;;;;;;5052054;28;20402;-72
2023/08/03 01:23:31;;;;;;;3.08;1.35;;;17.30;74.50;;;;;;5053853;28;20385;-72
2023/08/03 01:25:56;;;;;;;5.10;1.33;;;17.30;74.50;;;;;;5053610;28;20402;-71
2023/08/03 01:28:22;;;;;;;6.50;1.70;;;17.20;77.10;;;;;;5054898;28;20858;-71
2023/08/03 01:30:48;;;;;;;5.97;1.70;;;17.20;76.00;;;;;;5055198;28;20404;-77
2023/08/03 01:33:13;;;;;;;2.70;1.50;;;17.20;75.50;;;;;;5053834;28;20821;-76
2023/08/03 01:35:39;;;;;;;3.53;1.40;;;17.20;74.60;;;;;;5064545;28;20393;-76
2023/08/03 01:38:05;;;;;;;3.35;1.70;;;17.20;75.20;;;;;;5070571;28;20381;-75
2023/08/03 01:40:30;;;;;;;3.93;1.70;;;17.20;73.90;;;;;;5071359;28;20385;-75
2023/08/03 01:42:56;;;;;;;7.40;1.63;;;17.20;73.60;;;;;;5064133;28;20408;-75
2023/08/03 01:45:21;;;;;;;3.83;1.52;;;17.30;71.80;;;;;;5055387;28;20416;-75
2023/08/03 01:47:47;;;;;;;5.88;1.80;;;17.30;70.20;;;;;;5053845;28;20459;-75
2023/08/03 01:50:12;;;;;;;3.80;2.00;;;17.30;70.50;;;;;;5053505;28;20908;-75
2023/08/03 01:52:38;;;;;;;4.05;1.70;;;17.30;72.50;;;;;;5053415;28;20769;-75
2023/08/03 01:55:04;;;;;;;8.25;2.40;;;17.30;72.10;;;;;;5053253;28;20874;-76
2023/08/03 01:57:29;;;;;;;8.55;1.92;;;17.20;73.20;;;;;;5053415;28;20746;-75
2023/08/03 01:59:55;;;;;;;5.47;1.70;;;17.30;70.50;;;;;;5053332;28;20377;-74
2023/08/03 02:02:20;;;;;;;7.73;2.17;;;17.30;72.80;;;;;;5053174;28;20462;-75
2023/08/03 02:04:46;;;;;;;5.03;1.70;;;17.30;72.90;;;;;;5053200;28;20377;-75
2023/08/03 02:07:43;;;;;;;8.07;2.00;;;17.30;71.00;;;;;;5053149;28;20385;-75
2023/08/03 02:10:10;;;;;;;6.65;2.10;;;17.30;70.80;;;;;;5052921;28;20391;-75
2023/08/03 02:12:35;;;;;;;7.20;2.00;;;17.30;72.20;;;;;;5052633;28;20492;-76
2023/08/03 02:15:01;;;;;;;8.20;2.00;;;17.30;74.10;;;;;;5053268;28;20829;-75
2023/08/03 02:17:30;;;;;;;8.02;1.90;;;17.30;72.60;;;;;;5052825;28;20439;-74
2023/08/03 02:19:55;;;;;;;9.02;1.98;;;17.30;72.90;;;;;;5052903;28;20423;-74
2023/08/03 02:22:21;;;;;;;6.82;1.85;;;17.30;73.80;;;;;;5052901;28;20385;-74
2023/08/03 02:24:46;;;;;;;5.00;1.70;;;17.20;76.40;;;;;;5054761;28;20531;-75
2023/08/03 02:27:12;;;;;;;5.60;2.20;;;17.10;77.10;;;;;;5055551;28;20477;-75
2023/08/03 02:29:37;;;;;;;7.47;2.40;;;17.10;77.40;;;;;;5053540;28;20385;-76
2023/08/03 02:32:03;;;;;;;7.33;2.00;;;17.10;76.30;;;;;;5053708;28;20429;-76
2023/08/03 02:34:29;;;;;;;7.77;2.27;;;17.10;75.60;;;;;;5054222;28;20388;-76
2023/08/03 02:36:54;;;;;;;5.97;2.17;;;17.20;74.00;;;;;;5034785;28;20468;-75
2023/08/03 02:39:20;;;;;;;5.97;1.70;;;17.10;75.10;;;;;;5052342;28;20423;-74
2023/08/03 02:41:45;;;;;;;4.67;2.00;;;17.10;74.80;;;;;;5052276;28;20472;-75
2023/08/03 02:44:11;;;;;;;5.73;1.93;;;17.20;74.70;;;;;;5052156;28;20432;-75
2023/08/03 02:46:36;;;;;;;7.10;2.22;;;17.20;72.60;;;;;;5052097;28;20382;-75
2023/08/03 02:49:02;;;;;;;7.07;1.90;;;17.20;71.80;;;;;;5052258;28;20396;-75
2023/08/03 02:51:27;;;;;;;6.87;2.17;;;17.20;71.70;;;;;;5052022;28;20413;-75
2023/08/03 02:53:53;;;;;;;8.68;2.47;;;17.30;69.50;;;;;;5054225;28;20385;-75
2023/08/03 02:56:18;;;;;;;6.50;1.90;;;17.40;68.00;;;;;;5056216;28;20396;-75
2023/08/03 02:58:44;;;;;;;6.97;2.30;;;17.30;66.50;;;;;;5037325;28;20382;-75
2023/08/03 03:01:09;;;;;;;7.10;2.20;;;17.40;65.30;;;;;;5052580;28;20389;-76
2023/08/03 03:03:35;;;;;;;6.77;2.07;;;17.40;65.40;;;;;;5055420;28;20396;-76
2023/08/03 03:06:00;;;;;;;8.60;1.90;;;17.40;63.80;;;;;;5056412;28;20401;-73
2023/08/03 03:08:26;;;;;;;6.90;2.00;;;17.40;63.80;;;;;;5055864;28;20464;-77
2023/08/03 03:10:51;;;;;;;7.13;1.98;;;17.20;65.50;;;;;;5056356;28;20389;-76
2023/08/03 03:13:17;;;;;;;6.70;1.97;;;17.20;65.50;;;;;;5054614;28;20475;-76
2023/08/03 03:15:43;;;;;;;5.97;2.20;;;17.10;66.70;;;;;;5054579;28;20386;-76
2023/08/03 03:18:08;;;;;;;5.60;1.90;;;17.00;67.60;;;;;;5053278;28;20385;-75
2023/08/03 03:20:34;;;;;;;6.47;1.80;;;17.00;67.70;;;;;;5052851;28;20789;-75
2023/08/03 03:22:59;;;;;;;4.73;1.73;;;17.00;67.40;;;;;;5052707;28;20397;-75
2023/08/03 03:25:25;;;;;;;2.55;1.70;;;17.00;67.40;;;;;;5035358;28;20385;-75
2023/08/03 03:27:50;;;;;;;3.70;2.20;;;17.00;67.00;;;;;;5053003;28;20385;-76
2023/08/03 03:30:16;;;;;;;5.03;1.63;;;17.00;68.10;;;;;;5054778;28;20404;-75
2023/08/03 03:32:43;;;;;;;6.97;1.90;;;17.00;67.50;;;;;;5036850;28;20933;-74
2023/08/03 03:35:09;;;;;;;9.73;2.40;;;17.00;68.20;;;;;;5035894;28;20746;-75
2023/08/03 03:37:34;;;;;;;2.60;1.90;;;17.00;66.30;;;;;;5053917;28;20382;-75
2023/08/03 03:40:00;;;;;;;4.18;1.67;;;17.20;64.00;;;;;;5053764;28;20436;-76
2023/08/03 03:42:25;;;;;;;3.17;1.53;;;17.20;64.20;;;;;;5036256;28;20408;-75
2023/08/03 03:44:51;;;;;;;2.63;1.47;;;17.30;63.80;;;;;;5053345;28;20386;-73
2023/08/03 03:47:16;;;;;;;4.57;1.50;;;17.20;63.40;;;;;;5053987;28;20536;-76
2023/08/03 03:49:42;;;;;;;4.68;1.60;;;17.20;64.00;;;;;;5054492;28;20743;-76
2023/08/03 03:52:08;;;;;;;3.30;1.50;;;17.20;64.30;;;;;;5034520;28;20489;-76
2023/08/03 03:54:33;;;;;;;3.30;1.20;;;17.30;61.80;;;;;;5051887;28;20420;-76
2023/08/03 03:57:00;;;;;;;3.90;1.90;;;17.40;61.00;;;;;;5051421;28;20385;-76
2023/08/03 03:59:26;;;;;;;4.80;1.70;;;17.40;60.40;;;;;;5051741;28;20472;-75
2023/08/03 04:01:52;;;;;;;5.10;1.60;;;17.40;60.40;;;;;;5051683;28;20459;-75
2023/08/03 04:04:17;;;;;;;4.30;1.50;;;17.40;59.40;;;;;;5051085;28;20388;-76
2023/08/03 04:06:43;;;;;;;7.50;1.67;;;17.50;59.10;;;;;;5032999;28;20913;-76
2023/08/03 04:09:09;;;;;;;2.88;1.30;;;17.50;58.30;;;;;;5050851;28;20385;-75
2023/08/03 04:11:34;;;;;;;5.90;1.70;;;17.50;59.00;;;;;;5034542;28;20401;-76
2023/08/03 04:14:00;;;;;;;5.50;1.50;;;17.50;58.10;;;;;;5052364;28;20758;-76
2023/08/03 04:16:25;;;;;;;2.55;1.27;;;17.50;58.10;;;;;;5050983;28;20373;-76
2023/08/03 04:18:51;;;;;;;5.60;1.80;;;17.50;59.00;;;;;;5050956;28;20435;-76
2023/08/03 04:21:16;;;;;;;3.60;1.40;;;17.60;58.90;;;;;;5050866;28;20381;-76
2023/08/03 04:23:42;;;;;;;4.60;1.40;;;17.60;57.90;;;;;;5051233;28;20419;-76
2023/08/03 04:26:08;;;;;;;3.00;1.20;;;17.60;58.00;;;;;;5051301;28;20447;-77
2023/08/03 04:28:34;;;;;;;2.35;1.25;;;17.70;56.50;;;;;;5051496;28;20515;-76
2023/08/03 04:30:59;;;;;;;3.65;1.30;;;17.70;56.80;;;;;;5051166;28;20370;-75
2023/08/03 04:33:25;;;;;;;5.60;1.10;;;17.70;55.90;;;;;;5051467;28;20405;-76
2023/08/03 04:35:50;;;;;;;2.30;1.40;;;17.80;55.80;;;;;;5050991;28;20396;-75
2023/08/03 04:38:16;;;;;;;3.00;1.40;;;17.80;55.00;;;;;;5050748;28;20381;-75
2023/08/03 04:40:41;;;;;;;2.77;1.50;;;17.80;55.70;;;;;;5032595;28;20382;-75
2023/08/03 04:43:07;;;;;;;7.00;1.30;;;17.80;55.00;;;;;;5050473;28;20715;-75
2023/08/03 04:45:33;;;;;;;6.60;1.40;;;17.90;55.60;;;;;;5050776;28;20497;-75
2023/08/03 04:47:58;;;;;;;2.55;1.13;;;17.80;55.70;;;;;;5032678;28;20426;-75
2023/08/03 04:50:24;;;;;;;4.70;1.20;;;17.80;55.30;;;;;;5050875;28;20392;-75
2023/08/03 04:52:49;;;;;;;4.20;1.47;;;17.80;56.40;;;;;;5032415;28;20429;-76
2023/08/03 04:55:15;;;;;;;2.83;1.10;;;17.80;56.10;;;;;;5051670;28;20439;-75
2023/08/03 04:57:40;;;;;;;3.70;1.30;;;17.80;55.20;;;;;;5054733;28;20385;-75
2023/08/03 05:00:07;;;;;;;6.23;1.20;;;17.90;55.10;;;;;;5054639;28;20927;-74
2023/08/03 05:02:32;;;;;;;3.72;1.30;;;17.90;54.30;;;;;;5055846;28;20703;-75
2023/08/03 05:04:58;;;;;;;2.60;1.20;;;18.00;53.80;;;;;;5036266;28;20385;-75
2023/08/03 05:07:23;;;;;;;3.20;1.40;;;18.00;53.20;;;;;;5054329;28;20466;-76
2023/08/03 05:09:49;;;;;;;2.20;1.10;;;18.10;54.10;;;;;;5053971;28;20401;-75
2023/08/03 05:12:15;;;;;;;4.10;1.40;;;18.10;52.90;;;;;;5053586;28;20409;-75
2023/08/03 05:14:40;;;;;;;3.70;1.00;;;18.10;52.60;;;;;;5054075;28;20381;-75
2023/08/03 05:17:06;;;;;;;3.80;1.40;;;18.10;52.70;;;;;;5053970;28;20386;-75
2023/08/03 05:19:31;;;;;;;2.63;1.10;;;18.20;52.30;;;;;;5054105;28;20577;-75
2023/08/03 05:21:58;;;;;;;2.25;1.00;;;18.20;52.80;;;;;;5054314;28;20381;-75
2023/08/03 05:24:24;;;;;;;2.50;1.30;;;18.30;51.40;;;;;;5054311;28;20464;-75
2023/08/03 05:26:50;;;;;;;3.30;1.05;;;18.40;50.60;;;;;;5054502;28;20481;-75
2023/08/03 05:29:15;;;;;;;2.00;0.90;;;18.40;50.20;;;;;;5055417;28;20397;-75
2023/08/03 05:31:41;;;;;;;4.57;1.20;;;18.40;50.20;;;;;;5054153;28;20405;-76
2023/08/03 05:34:07;;;;;;;2.80;1.00;;;18.40;49.90;;;;;;5053942;28;20422;-77
2023/08/03 05:36:32;;;;;;;2.83;1.08;;;18.30;50.30;;;;;;5035888;28;20388;-77
2023/08/03 05:38:58;;;;;;;1.50;1.10;;;18.40;51.50;;;;;;5053966;28;20424;-75
2023/08/03 05:41:25;;;;;;;5.03;1.07;;;18.40;51.80;;;;;;5053560;28;20377;-75
2023/08/03 05:43:51;;;;;;;2.60;1.23;;;18.30;51.80;;;;;;5053809;28;20381;-75
2023/08/03 05:46:17;;;;;;;4.60;1.40;;;18.20;53.50;;;;;;5053647;28;20384;-75
2023/08/03 05:48:47;;;;;;;2.15;1.20;;;18.20;54.40;;;;;;5035524;28;20417;-76
2023/08/03 05:51:25;;;;;;;2.45;1.10;;;18.10;56.40;;;;;;5053456;28;20709;-75
2023/08/03 05:53:52;;;;;;;3.90;1.50;;;18.00;58.10;;;;;;5053941;28;20378;-77
2023/08/03 05:56:21;;;;;;;3.45;1.10;;;18.00;58.30;;;;;;5053564;28;20388;-75
2023/08/03 05:58:47;;;;;;;4.30;1.02;;;18.00;59.90;;;;;;5035438;28;20384;-75
2023/08/03 06:01:13;;;;;;;3.00;1.30;;;18.10;59.30;;;;;;5053472;28;20470;-76
2023/08/03 06:03:43;;;;;;;6.40;1.40;;;18.20;59.60;;;;;;5053201;28;20429;-75
2023/08/03 06:06:10;;;;;;;2.53;1.10;;;18.20;59.50;;;;;;5052875;28;20373;-75
2023/08/03 06:08:36;;;;;;;2.95;1.30;;;18.00;61.70;;;;;;5052201;28;20873;-75
2023/08/03 06:11:04;;;;;;;3.75;1.10;;;17.90;63.00;;;;;;5038596;28;20386;-74
2023/08/03 06:13:39;;;;;;;2.78;1.58;;;17.70;67.00;;;;;;5052904;28;20773;-76
2023/08/03 06:16:08;;;;;;;3.30;1.77;;;17.60;70.40;;;;;;5052872;28;20385;-74
2023/08/03 06:18:40;;;;;;;1.80;1.50;;;17.40;72.40;;;;;;5053157;28;20381;-76
2023/08/03 06:21:05;;;;;;;2.65;1.30;;;17.30;74.10;;;;;;5034707;28;20389;-75
2023/08/03 06:23:31;;;;;;;3.40;1.50;;;17.30;76.80;;;;;;5052606;28;20808;-75
2023/08/03 06:25:58;;;;;;;2.42;1.50;;;17.30;76.40;;;;;;5052960;28;20405;-75
2023/08/03 06:28:25;;;;;;;3.75;1.58;;;17.30;75.10;;;;;;5052819;28;20393;-75
2023/08/03 06:30:51;;;;;;;3.53;1.90;;;17.30;74.80;;;;;;5052523;28;20428;-75
2023/08/03 06:33:19;;;;;;;5.97;3.30;;;17.40;75.10;;;;;;5034431;28;20446;-76
2023/08/03 06:35:46;;;;;;;4.05;1.90;;;17.40;72.40;;;;;;5052547;28;20389;-74
2023/08/03 06:38:17;;;;;;;2.60;1.60;;;17.50;73.40;;;;;;5052711;28;20762;-76
2023/08/03 06:40:44;;;;;;;4.20;1.50;;;17.50;72.60;;;;;;5052422;28;20388;-75
2023/08/03 06:43:10;;;;;;;3.20;1.58;;;17.60;72.00;;;;;;5052847;28;20381;-75
2023/08/03 06:45:36;;;;;;;4.00;2.00;;;17.60;70.90;;;;;;5052803;28;20392;-75
2023/08/03 06:48:03;;;;;;;5.90;2.22;;;17.60;69.70;;;;;;5052267;28;20378;-75
2023/08/03 06:50:32;;;;;;;8.10;3.58;;;17.60;72.10;;;;;;5052542;28;20742;-75
2023/08/03 06:52:59;;;;;;;5.17;2.57;;;17.70;70.60;;;;;;5051858;28;20433;-76
2023/08/03 06:55:25;;;;;;;17.63;6.10;;;17.80;67.40;;;;;;5052154;28;20389;-76
2023/08/03 06:57:51;;;;;;;4.70;1.60;;;17.80;68.70;;;;;;5052335;28;20414;-76
2023/08/03 07:00:17;;;;;;;3.45;1.70;;;17.80;68.80;;;;;;5052284;28;20381;-76
2023/08/03 07:02:45;;;;;;;3.20;1.60;;;17.80;68.20;;;;;;5051626;28;20794;-76
2023/08/03 07:05:10;;;;;;;3.75;2.10;;;17.80;66.90;;;;;;5051848;28;20391;-76
2023/08/03 07:07:36;;;;;;;4.10;1.70;;;17.70;69.60;;;;;;5052066;28;20381;-74
2023/08/03 07:10:02;;;;;;;3.58;1.35;;;17.80;68.60;;;;;;5051908;28;20386;-76
2023/08/03 07:12:28;;;;;;;4.13;1.60;;;17.70;70.20;;;;;;5052083;28;20433;-75
2023/08/03 07:14:54;;;;;;;3.50;1.40;;;17.60;71.40;;;;;;5052110;28;20889;-75
2023/08/03 07:17:20;;;;;;;2.60;1.90;;;17.60;71.90;;;;;;5034450;28;20496;-75
2023/08/03 07:19:50;;;;;;;2.22;1.50;;;17.60;73.10;;;;;;5051961;28;20392;-75
2023/08/03 07:22:17;;;;;;;2.63;1.60;;;17.50;75.10;;;;;;5052203;28;20712;-75
2023/08/03 07:24:43;;;;;;;5.93;2.22;;;17.50;75.80;;;;;;5052332;28;20800;-76
2023/08/03 07:27:08;;;;;;;4.20;1.80;;;17.50;80.00;;;;;;5052557;28;20386;-76
2023/08/03 07:29:34;;;;;;;3.30;1.83;;;17.50;80.40;;;;;;5054380;28;20385;-76
2023/08/03 07:32:01;;;;;;;5.07;2.30;;;17.50;80.70;;;;;;5060854;28;20459;-75
2023/08/03 07:34:26;;;;;;;6.43;2.20;;;17.60;78.80;;;;;;5061489;28;20878;-76
2023/08/03 07:36:53;;;;;;;1.98;1.20;;;17.80;76.10;;;;;;5056551;28;20419;-76
2023/08/03 07:39:19;;;;;;;3.27;1.30;;;18.10;74.50;;;;;;5051924;28;20794;-75
2023/08/03 07:41:44;;;;;;;1.30;1.00;;;18.30;70.10;;;;;;5033774;28;20425;-76
2023/08/03 07:44:10;;;;;;;3.70;1.00;;;18.40;66.10;;;;;;5054010;28;20389;-76
2023/08/03 07:46:36;;;;;;;2.75;1.20;;;18.50;64.70;;;;;;5041690;28;20389;-76
2023/08/03 07:49:01;;;;;;;2.00;1.67;;;18.60;63.40;;;;;;5060250;28;20389;-76
2023/08/03 07:51:27;;;;;;;2.20;1.20;;;18.80;62.50;;;;;;5042006;28;20392;-76
2023/08/03 07:53:52;;;;;;;1.90;1.25;;;18.90;59.00;;;;;;5060979;28;20407;-75
2023/08/03 07:56:20;;;;;;;2.70;1.55;;;19.10;57.50;;;;;;5060504;28;20390;-75
2023/08/03 07:58:47;;;;;;;8.90;1.20;;;19.20;57.70;;;;;;5061461;28;20377;-75
2023/08/03 08:01:12;;;;;;;4.07;1.40;;;19.20;56.80;;;;;;5057753;28;20400;-76
2023/08/03 08:03:39;;;;;;;2.40;1.40;;;19.30;56.50;;;;;;5057339;28;20386;-76
2023/08/03 08:06:06;;;;;;;3.63;1.20;;;19.50;55.30;;;;;;5056397;28;20867;-76
2023/08/03 08:08:32;;;;;;;4.50;1.40;;;19.60;53.50;;;;;;5054786;28;20412;-76
2023/08/03 08:10:57;;;;;;;2.83;1.50;;;19.80;53.30;;;;;;5036477;28;20400;-76
2023/08/03 08:13:23;;;;;;;3.20;1.47;;;19.80;52.80;;;;;;5055126;28;20439;-75
2023/08/03 08:15:48;;;;;;;3.72;1.80;;;20.00;50.80;;;;;;5054756;28;20465;-76
2023/08/03 08:18:14;;;;;;;3.53;1.50;;;20.00;49.30;;;;;;5056822;28;20378;-77
2023/08/03 08:20:40;;;;;;;6.73;1.40;;;20.00;48.30;;;;;;5041580;28;20641;-76
2023/08/03 08:23:05;;;;;;;3.90;1.30;;;19.90;49.00;;;;;;5058471;28;20465;-76
2023/08/03 08:25:33;;;;;;;2.80;1.48;;;20.00;48.80;;;;;;5046251;28;20417;-76
2023/08/03 08:27:59;;;;;;;4.68;1.40;;;19.90;50.00;;;;;;5068225;28;20381;-75
2023/08/03 08:30:24;;;;;;;2.50;1.57;;;19.80;49.70;;;;;;5066307;28;20403;-75
2023/08/03 08:32:50;;;;;;;6.90;1.83;;;19.60;50.10;;;;;;5050961;28;20405;-77
2023/08/03 08:35:16;;;;;;;2.83;1.50;;;19.60;51.40;;;;;;5069020;28;20390;-76
2023/08/03 08:37:41;;;;;;;4.40;1.70;;;19.40;51.30;;;;;;5064703;28;20475;-75
2023/08/03 08:40:12;;;;;;;6.05;1.75;;;19.30;51.70;;;;;;5060293;28;20439;-75
2023/08/03 08:42:38;;;;;;;3.60;1.60;;;19.30;52.30;;;;;;5057008;28;20455;-76
2023/08/03 08:45:05;;;;;;;4.90;1.40;;;19.30;50.70;;;;;;5052640;28;20432;-76
2023/08/03 08:47:30;;;;;;;5.60;2.13;;;19.40;50.70;;;;;;5053468;28;20450;-75
2023/08/03 08:49:56;;;;;;;3.73;1.60;;;19.40;51.30;;;;;;5055512;28;20393;-76
2023/08/03 08:52:25;;;;;;;6.15;1.65;;;19.40;50.50;;;;;;5056274;28;20393;-76
2023/08/03 08:54:51;;;;;;;6.20;1.50;;;19.30;51.20;;;;;;5037699;28;20435;-76
2023/08/03 08:57:16;;;;;;;3.60;1.30;;;19.60;50.10;;;;;;5054826;28;20385;-76
2023/08/03 09:00:05;;;;;;;3.60;1.40;;;19.90;47.80;;;;;;5042741;28;20392;-76
2023/08/03 09:02:30;;;;;;;3.00;1.30;;;20.10;47.40;;;;;;5057806;28;20401;-75
2023/08/03 09:04:56;;;;;;;3.63;1.60;;;20.50;44.10;;;;;;5056631;28;20388;-74
2023/08/03 09:07:22;;;;;;;3.15;1.38;;;20.80;42.20;;;;;;5055171;28;20388;-76
2023/08/03 09:09:48;;;;;;;2.43;1.50;;;21.00;41.20;;;;;;5054478;28;20774;-75
2023/08/03 09:12:25;;;;;;;5.07;1.40;;;20.90;40.30;;;;;;5050269;28;20405;-76
2023/08/03 09:14:52;;;;;;;6.35;1.67;;;20.90;40.30;;;;;;5050934;28;20377;-74
2023/08/03 09:17:19;;;;;;;5.25;1.40;;;20.80;41.10;;;;;;5050341;28;20399;-76
2023/08/03 09:19:45;;;;;;;3.72;1.38;;;20.60;42.30;;;;;;5051194;28;20393;-76
2023/08/03 09:22:12;;;;;;;4.95;1.60;;;20.60;42.50;;;;;;5051700;28;20393;-76
2023/08/03 09:24:37;;;;;;;4.30;1.50;;;20.90;41.50;;;;;;5051512;28;20480;-76
2023/08/03 09:27:04;;;;;;;5.38;1.63;;;21.20;39.30;;;;;;5052249;28;20470;-76
2023/08/03 09:29:31;;;;;;;2.05;1.30;;;21.40;38.30;;;;;;5051763;28;20913;-76
2023/08/03 09:32:02;;;;;;;3.63;1.40;;;21.40;38.50;;;;;;5051064;28;20413;-75
2023/08/03 09:34:38;;;;;;;2.93;1.50;;;21.30;38.30;;;;;;5050809;28;20439;-76
2023/08/03 09:37:06;;;;;;;2.70;1.70;;;21.30;38.20;;;;;;5032889;28;20390;-74
2023/08/03 09:39:34;;;;;;;6.67;1.67;;;21.40;38.20;;;;;;5033185;28;20473;-75
2023/08/03 09:42:03;;;;;;;5.80;1.70;;;21.60;37.70;;;;;;5052448;28;20476;-75
2023/08/03 09:44:30;;;;;;;1.70;1.30;;;21.80;36.70;;;;;;5054618;28;20413;-75
2023/08/03 09:46:57;;;;;;;4.47;1.30;;;21.90;35.90;;;;;;5037345;28;20451;-76
2023/08/03 09:49:24;;;;;;;3.67;1.50;;;22.00;35.70;;;;;;5054210;28;20487;-75
2023/08/03 09:51:53;;;;;;;3.70;1.52;;;22.00;34.80;;;;;;5053571;28;20492;-75
2023/08/03 09:54:35;;;;;;;5.00;1.50;;;22.00;35.60;;;;;;5055478;28;20777;-76
2023/08/03 09:57:07;;;;;;;5.15;1.88;;;22.00;35.30;;;;;;5054414;28;20492;-75
2023/08/03 09:59:36;;;;;;;3.50;1.45;;;21.90;35.60;;;;;;5036671;28;20894;-75
2023/08/03 10:02:05;;;;;;;3.22;1.52;;;22.00;35.80;;;;;;5053803;28;20776;-77
2023/08/03 10:04:33;;;;;;;3.30;1.60;;;21.70;36.00;;;;;;5037307;28;20455;-76
2023/08/03 10:07:05;;;;;;;5.45;1.42;;;21.60;37.20;;;;;;5054660;28;20417;-75
2023/08/03 10:09:38;;;;;;;4.38;1.58;;;21.80;36.80;;;;;;5037755;28;20455;-76
2023/08/03 10:12:08;;;;;;;6.03;2.00;;;21.40;36.60;;;;;;5055074;28;20412;-77
2023/08/03 10:14:39;;;;;;;4.18;2.00;;;21.00;38.20;;;;;;5054409;28;20436;-75
2023/08/03 10:17:07;;;;;;;7.95;2.22;;;20.90;39.30;;;;;;5036801;28;20473;-76
2023/08/03 10:19:33;;;;;;;3.45;1.65;;;20.90;38.80;;;;;;5039282;28;20897;-76
2023/08/03 10:21:59;;;;;;;3.70;2.10;;;21.10;37.70;;;;;;5054245;28;20753;-75
2023/08/03 10:24:25;;;;;;;5.07;1.90;;;21.50;36.40;;;;;;5055968;28;20469;-77
2023/08/03 10:26:54;;;;;;;6.80;2.00;;;22.10;34.70;;;;;;5060434;28;20382;-76
2023/08/03 10:29:51;;;;;;;7.13;1.98;;;22.40;33.00;;;;;;5060642;28;20381;-76
2023/08/03 10:32:22;;;;;;;5.27;1.80;;;22.20;33.10;;;;;;5059927;28;20442;-76
2023/08/03 10:34:48;;;;;;;5.50;2.00;;;21.80;35.20;;;;;;5044338;28;20381;-76
2023/08/03 10:37:14;;;;;;;6.40;1.70;;;21.80;35.30;;;;;;5061611;28;20872;-75
2023/08/03 10:39:59;;;;;;;2.95;1.70;;;21.90;34.10;;;;;;5055930;28;20373;-76
2023/08/03 10:42:35;;;;;;;3.63;1.80;;;22.00;33.60;;;;;;5037595;28;20746;-76
2023/08/03 10:45:22;;;;;;;4.33;1.87;;;21.90;34.30;;;;;;5057081;28;20754;-76
2023/08/03 10:47:48;;;;;;;6.28;2.00;;;21.70;35.60;;;;;;5055789;28;20393;-77
2023/08/03 10:50:14;;;;;;;5.82;2.05;;;21.60;36.60;;;;;;5037549;28;20436;-76
2023/08/03 10:52:40;;;;;;;5.00;1.90;;;21.30;38.20;;;;;;5054004;28;20544;-76
2023/08/03 10:55:26;;;;;;;5.10;1.75;;;21.00;37.90;;;;;;5053905;28;20389;-76
2023/08/03 10:57:53;;;;;;;2.55;1.50;;;21.20;37.70;;;;;;5053684;28;20415;-76
2023/08/03 11:00:18;;;;;;;4.97;1.70;;;21.50;36.40;;;;;;5053504;28;20412;-75
2023/08/03 11:02:44;;;;;;;3.50;1.63;;;21.60;35.90;;;;;;5053019;28;20417;-76
2023/08/03 11:05:11;;;;;;;5.70;1.93;;;21.20;38.00;;;;;;5053078;28;20884;-76
2023/08/03 11:07:42;;;;;;;8.88;1.80;;;20.90;41.60;;;;;;5054327;28;20385;-74
2023/08/03 11:10:10;;;;;;;7.00;1.98;;;20.70;41.80;;;;;;5056091;28;20385;-76
2023/08/03 11:12:36;;;;;;;6.15;1.90;;;21.10;42.50;;;;;;5059541;28;20405;-77
2023/08/03 11:15:05;;;;;;;5.28;1.80;;;21.70;38.10;;;;;;5054710;28;20381;-76
2023/08/03 11:17:31;;;;;;;8.07;2.20;;;22.00;38.10;;;;;;5057155;28;20381;-77
2023/08/03 11:19:58;;;;;;;7.18;1.75;;;22.30;36.20;;;;;;5057508;28;20424;-76
2023/08/03 11:22:24;;;;;;;4.20;1.50;;;22.50;34.60;;;;;;5054876;28;20396;-76
2023/08/03 11:25:03;;;;;;;3.10;1.50;;;22.70;33.50;;;;;;5052944;28;20385;-76
2023/08/03 11:27:30;;;;;;;5.43;1.50;;;22.80;33.60;;;;;;5053468;28;20874;-76
2023/08/03 11:29:56;;;;;;;3.72;1.55;;;23.10;32.30;;;;;;5052638;28;20462;-76
2023/08/03 11:32:28;;;;;;;5.63;1.70;;;23.50;30.90;;;;;;5052537;28;20466;-78
2023/08/03 11:35:05;;;;;;;4.22;1.60;;;23.50;29.20;;;;;;5052289;28;20381;-76
2023/08/03 11:37:32;;;;;;;2.30;1.27;;;23.40;30.10;;;;;;5034214;28;20413;-76
2023/08/03 11:40:00;;;;;;;6.28;1.60;;;23.30;29.70;;;;;;5052435;28;20874;-75
2023/08/03 11:42:29;;;;;;;4.97;1.80;;;23.20;29.70;;;;;;5052126;28;20478;-74
2023/08/03 11:44:54;;;;;;;2.88;1.40;;;23.00;30.80;;;;;;5053125;28;20382;-77
2023/08/03 11:47:20;;;;;;;3.90;1.53;;;22.70;29.80;;;;;;5052594;28;20392;-76
2023/08/03 11:49:51;;;;;;;4.50;1.40;;;22.10;32.00;;;;;;5052506;28;20417;-75
2023/08/03 11:52:18;;;;;;;2.13;1.30;;;21.70;33.70;;;;;;5051845;28;20886;-76
2023/08/03 11:54:44;;;;;;;3.28;1.52;;;21.70;34.60;;;;;;5033825;28;20821;-76
2023/08/03 11:59:54;;;;;;;2.83;1.30;;;22.00;32.70;;;;;;5051674;28;20400;-76
2023/08/03 12:02:39;;;;;;;3.10;1.60;;;21.90;33.00;;;;;;5051671;28;20472;-75
2023/08/03 12:05:06;;;;;;;5.43;1.67;;;21.70;33.20;;;;;;5050250;28;20757;-76
2023/08/03 12:07:32;;;;;;;5.20;1.40;;;21.60;33.80;;;;;;5051329;28;20389;-76
2023/08/03 12:09:57;;;;;;;2.10;1.20;;;21.70;34.10;;;;;;5051648;28;20464;-76
2023/08/03 12:12:24;;;;;;;2.73;1.00;;;21.60;33.40;;;;;;5055692;28;20444;-76
2023/08/03 12:14:49;;;;;;;3.33;1.40;;;21.40;34.70;;;;;;5052992;28;20435;-77
2023/08/03 12:17:15;;;;;;;3.30;1.50;;;21.20;35.20;;;;;;5053205;28;20789;-77
2023/08/03 12:19:41;;;;;;;2.60;1.20;;;21.10;36.00;;;;;;5055256;28;20377;-77
2023/08/03 12:22:07;;;;;;;2.30;1.20;;;21.00;36.20;;;;;;5035547;28;20377;-77
2023/08/03 12:24:32;;;;;;;3.30;1.30;;;21.10;35.80;;;;;;5035005;28;20924;-75
2023/08/03 12:26:58;;;;;;;2.92;1.40;;;21.20;35.40;;;;;;5034623;28;20389;-77
2023/08/03 12:29:24;;;;;;;2.33;1.60;;;21.40;35.10;;;;;;5053816;28;20865;-77
2023/08/03 12:31:52;;;;;;;5.90;1.50;;;21.40;35.60;;;;;;5033926;28;20781;-75
2023/08/03 12:34:18;;;;;;;2.05;1.42;;;21.30;36.20;;;;;;5046866;28;20496;-72
2023/08/03 12:36:43;;;;;;;3.30;1.50;;;21.20;36.40;;;;;;5048470;28;20481;-73
2023/08/03 12:39:09;;;;;;;2.70;1.40;;;21.10;36.20;;;;;;5048417;28;20395;-71
2023/08/03 12:41:35;;;;;;;1.83;1.20;;;21.40;35.90;;;;;;5048467;28;20386;-72
2023/08/03 12:44:00;;;;;;;3.83;1.30;;;21.70;35.20;;;;;;5048411;28;20396;-72
2023/08/03 12:46:26;;;;;;;2.70;1.40;;;21.60;34.10;;;;;;5048651;28;20409;-69
2023/08/03 12:48:52;;;;;;;3.97;1.30;;;21.30;35.60;;;;;;5044219;28;20407;-71